Time;durP1;ratioP1;P1;durP2;ratioP2;P2;SDS_P1;SDS_P2;PMS_P1;PMS_P2;Temp;Humidity;BMP_temperature;BMP_pressure;BME280_temperature;BME280_humidity;BME280_pressure;Samples;Min_cycle;Max_cycle;Signal;HPM_P1;HPM_P2
2022/04/26 03:36:59;;;;;;;6.85;2.17;;;;;;;9.60;72.89;96108.59;4996648;28;20857;-66
2022/04/26 03:39:26;;;;;;;4.43;1.80;;;;;;;9.68;73.04;96111.75;4995953;28;20030;-66
2022/04/26 03:41:52;;;;;;;6.53;1.92;;;;;;;9.73;72.97;96112.41;4996079;28;20046;-64
2022/04/26 03:44:17;;;;;;;6.40;2.78;;;;;;;9.79;72.95;96113.94;4996184;28;20095;-65
2022/04/26 03:46:43;;;;;;;8.30;2.50;;;;;;;9.84;72.80;96121.56;4996049;28;20030;-66
2022/04/26 03:49:08;;;;;;;10.65;2.78;;;;;;;9.89;72.66;96129.22;4996276;28;20030;-64
2022/04/26 03:51:34;;;;;;;3.95;2.10;;;;;;;9.89;72.63;96126.59;4996203;28;20049;-62
2022/04/26 03:53:59;;;;;;;9.55;4.20;;;;;;;9.97;72.63;96124.53;4996096;28;20488;-63
2022/04/26 03:56:25;;;;;;;10.85;4.38;;;;;;;10.06;73.23;96129.34;4995964;28;20105;-67
2022/04/26 03:58:50;;;;;;;5.57;2.00;;;;;;;10.30;72.40;96137.03;4995931;28;20362;-66
2022/04/26 04:01:16;;;;;;;9.82;2.40;;;;;;;10.57;71.54;96128.09;4995878;28;20023;-66
2022/04/26 04:03:42;;;;;;;7.65;2.00;;;;;;;10.85;70.87;96135.56;4995892;28;20061;-63
2022/04/26 04:06:07;;;;;;;4.95;1.48;;;;;;;11.12;69.99;96136.97;4995930;28;20089;-64
2022/04/26 04:08:33;;;;;;;9.75;1.80;;;;;;;11.48;69.74;96137.91;4995731;28;20027;-67
2022/04/26 04:10:59;;;;;;;5.28;1.80;;;;;;;11.87;68.66;96141.28;4978284;28;20023;-63
2022/04/26 04:13:24;;;;;;;3.60;1.42;;;;;;;12.23;67.74;96144.78;4995720;28;20014;-64
2022/04/26 04:15:50;;;;;;;5.45;1.50;;;;;;;12.45;67.01;96146.28;4995605;28;20476;-65
2022/04/26 04:21:00;;;;;;;2.35;1.10;;;;;;;12.71;66.55;96150.19;4995697;28;20033;-65
2022/04/26 04:23:26;;;;;;;3.40;1.20;;;;;;;12.86;65.96;96153.75;4995441;28;20026;-63
2022/04/26 04:25:52;;;;;;;2.45;1.52;;;;;;;13.06;66.66;96148.38;4995605;28;20041;-65
2022/04/26 04:28:17;;;;;;;4.65;1.40;;;;;;;13.25;66.06;96156.09;4995291;28;20069;-67
2022/04/26 04:30:43;;;;;;;3.88;1.42;;;;;;;13.39;66.99;96150.91;4995344;28;20037;-64
2022/04/26 04:33:09;;;;;;;9.13;1.80;;;;;;;13.52;66.97;96155.53;4995371;28;20106;-64
2022/04/26 04:35:35;;;;;;;1.83;1.10;;;;;;;13.66;68.19;96161.78;4995355;28;20030;-63
2022/04/26 04:38:00;;;;;;;2.92;1.23;;;;;;;13.73;68.04;96160.50;4995388;28;20038;-66
2022/04/26 04:40:26;;;;;;;5.47;1.50;;;;;;;13.81;67.67;96160.06;4994821;28;20081;-66
2022/04/26 04:42:51;;;;;;;5.63;1.63;;;;;;;14.02;67.60;96163.22;4995038;28;20022;-67
2022/04/26 04:45:17;;;;;;;2.22;1.20;;;;;;;14.36;66.47;96163.03;4995023;28;20033;-66
2022/04/26 04:47:43;;;;;;;3.10;0.93;;;;;;;14.68;66.57;96173.41;4995162;28;20018;-66
2022/04/26 04:50:09;;;;;;;7.07;1.52;;;;;;;14.88;63.28;96171.38;4994942;28;20026;-66
2022/04/26 04:52:36;;;;;;;6.93;1.55;;;;;;;15.00;62.65;96165.38;4994256;28;20030;-65
2022/04/26 04:55:01;;;;;;;2.42;1.48;;;;;;;15.12;62.56;96179.56;4994853;28;20461;-63
2022/04/26 04:57:27;;;;;;;3.33;1.48;;;;;;;15.20;62.33;96186.97;4994880;28;20097;-66
2022/04/26 04:59:53;;;;;;;5.35;1.50;;;;;;;15.32;63.09;96187.16;4994837;28;20034;-64
2022/04/26 05:02:18;;;;;;;5.80;1.40;;;;;;;15.37;61.51;96185.94;4994752;28;20033;-65
2022/04/26 05:04:45;;;;;;;4.53;1.77;;;;;;;15.45;60.14;96181.97;4994697;28;20492;-66
2022/04/26 05:07:10;;;;;;;6.22;1.80;;;;;;;15.50;58.53;96183.34;4994710;28;20089;-64
2022/04/26 05:09:37;;;;;;;6.60;1.65;;;;;;;15.56;59.23;96187.38;4994596;28;20014;-62
2022/04/26 05:12:04;;;;;;;2.47;1.40;;;;;;;15.64;60.02;96186.91;4994543;28;20038;-63
2022/04/26 05:14:29;;;;;;;3.97;1.50;;;;;;;15.72;59.87;96191.69;4994435;28;20031;-63
2022/04/26 05:16:55;;;;;;;8.48;1.60;;;;;;;15.81;59.95;96193.72;4994457;28;20366;-65
2022/04/26 05:19:21;;;;;;;1.98;1.02;;;;;;;15.93;64.25;96192.09;4994354;28;20034;-62
2022/04/26 05:21:47;;;;;;;5.32;1.48;;;;;;;16.08;64.67;96195.53;4994506;28;20081;-62
2022/04/26 05:27:13;;;;;;;7.22;1.35;;;;;;;16.95;61.63;96206.53;4934530;29;20542;-62
2022/04/26 05:29:41;;;;;;;5.10;1.70;;;;;;;17.45;59.84;96203.13;4981612;28;20124;-62
2022/04/26 05:32:07;;;;;;;4.90;1.95;;;;;;;17.70;52.00;96201.34;4994229;28;20058;-65
2022/04/26 05:34:33;;;;;;;4.80;1.27;;;;;;;17.94;50.05;96204.84;4994184;28;20034;-63
2022/04/26 05:36:59;;;;;;;5.90;1.60;;;;;;;18.56;52.42;96203.88;4994209;28;20022;-66
2022/04/26 05:39:25;;;;;;;2.53;1.20;;;;;;;19.21;50.42;96206.06;4993978;28;20027;-65
2022/04/26 05:41:50;;;;;;;8.70;1.38;;;;;;;19.89;44.21;96210.41;4993889;28;20397;-63
2022/04/26 05:44:16;;;;;;;7.82;1.45;;;;;;;20.49;44.76;96203.81;4994020;28;20018;-65
2022/04/26 05:46:42;;;;;;;2.00;1.30;;;;;;;20.88;44.22;96207.69;4993951;28;20128;-61
2022/04/26 05:49:08;;;;;;;3.10;1.30;;;;;;;21.02;45.60;96210.06;4993895;28;20472;-65
2022/04/26 05:51:34;;;;;;;7.80;1.30;;;;;;;21.43;45.18;96218.06;4993887;28;20029;-64
2022/04/26 05:54:00;;;;;;;7.80;1.23;;;;;;;21.63;42.50;96218.13;4994006;28;20030;-65
2022/04/26 05:56:25;;;;;;;3.28;1.20;;;;;;;21.57;43.47;96222.19;4993725;28;20388;-64
2022/04/26 05:58:52;;;;;;;6.50;1.92;;;;;;;21.64;46.00;96221.66;4993831;28;20037;-66
2022/04/26 06:01:17;;;;;;;4.47;1.55;;;;;;;21.79;45.97;96214.97;4993750;28;20034;-63
2022/04/26 06:03:43;;;;;;;3.95;1.20;;;;;;;22.26;41.17;96213.50;4993702;28;20060;-65
2022/04/26 06:06:10;;;;;;;6.03;1.45;;;;;;;22.37;41.01;96209.00;4976331;28;20065;-65
2022/04/26 06:08:36;;;;;;;5.50;1.23;;;;;;;22.75;39.94;96211.81;4993658;28;20064;-64
2022/04/26 06:11:02;;;;;;;6.07;1.00;;;;;;;22.93;39.58;96215.44;4993672;28;20050;-64
2022/04/26 06:13:28;;;;;;;6.57;1.30;;;;;;;23.34;38.46;96209.84;4993647;28;20031;-63
2022/04/26 06:15:54;;;;;;;5.28;0.90;;;;;;;23.58;37.12;96211.16;4993793;28;20385;-63
2022/04/26 06:18:20;;;;;;;4.75;1.35;;;;;;;23.56;38.72;96212.28;4993603;28;20098;-65
2022/04/26 06:20:45;;;;;;;5.72;1.42;;;;;;;23.49;40.23;96206.69;4993473;28;20373;-63
2022/04/26 06:23:11;;;;;;;6.80;1.20;;;;;;;23.52;39.93;96210.91;4993540;28;20025;-64
2022/04/26 06:25:39;;;;;;;4.15;1.30;;;;;;;23.63;38.10;96207.19;4993587;28;20022;-64
2022/04/26 06:28:06;;;;;;;4.70;1.70;;;;;;;23.96;38.57;96199.56;4993533;28;20081;-64
2022/04/26 06:30:31;;;;;;;5.47;1.27;;;;;;;24.07;36.50;96199.31;4976011;28;20444;-66
2022/04/26 06:32:57;;;;;;;2.30;1.25;;;;;;;24.32;37.44;96199.59;4993428;28;20031;-65
2022/04/26 06:35:23;;;;;;;3.15;1.30;;;;;;;24.56;36.50;96202.63;4993544;28;20018;-65
2022/04/26 06:37:49;;;;;;;7.18;1.60;;;;;;;24.50;37.31;96201.41;4993389;28;20026;-64
2022/04/26 06:40:16;;;;;;;4.00;1.10;;;;;;;24.64;35.66;96196.50;4993191;28;20112;-65
2022/04/26 06:42:41;;;;;;;3.10;1.10;;;;;;;24.67;35.05;96205.06;4993485;28;20027;-65
2022/04/26 06:45:08;;;;;;;7.63;1.10;;;;;;;24.84;35.05;96203.31;4993261;28;20034;-65
2022/04/26 06:47:34;;;;;;;4.05;1.30;;;;;;;25.29;31.63;96205.13;4976015;28;20377;-63
2022/04/26 06:49:59;;;;;;;3.25;1.20;;;;;;;25.46;29.50;96203.34;4993405;28;20024;-65
2022/04/26 06:52:25;;;;;;;1.90;0.80;;;;;;;25.27;27.56;96209.78;4993292;28;20026;-62
2022/04/26 06:54:50;;;;;;;4.38;1.00;;;;;;;25.42;28.67;96208.22;4993314;28;20019;-65
2022/04/26 06:57:17;;;;;;;2.85;0.73;;;;;;;25.54;27.50;96207.91;4993194;28;20026;-63
2022/04/26 06:59:43;;;;;;;5.50;0.88;;;;;;;25.59;27.73;96208.28;4993084;28;20511;-65
2022/04/26 07:02:09;;;;;;;4.82;1.05;;;;;;;25.80;29.30;96213.25;4993325;28;20023;-66
2022/04/26 07:04:35;;;;;;;2.60;0.80;;;;;;;26.09;28.90;96206.59;4993343;28;20491;-65
2022/04/26 07:07:00;;;;;;;2.92;0.63;;;;;;;26.02;26.65;96210.09;4993200;28;20033;-65
2022/04/26 07:09:26;;;;;;;2.63;0.60;;;;;;;25.81;26.33;96216.75;4993133;28;20030;-64
2022/04/26 07:11:52;;;;;;;4.22;0.95;;;;;;;25.82;28.43;96223.78;4993127;28;20054;-63
2022/04/26 07:14:18;;;;;;;1.88;0.80;;;;;;;25.88;26.90;96211.59;4994056;28;20088;-64
2022/04/26 07:16:49;;;;;;;2.05;0.88;;;;;;;25.76;27.50;96219.09;4996849;28;20034;-63
2022/04/26 07:19:17;;;;;;;6.18;1.02;;;;;;;25.95;29.63;96216.09;4996693;28;20105;-63
2022/04/26 07:21:47;;;;;;;5.15;1.08;;;;;;;25.73;27.80;96221.06;4996602;28;20026;-65
2022/04/26 07:24:14;;;;;;;3.88;0.95;;;;;;;25.06;27.76;96213.69;4996596;28;20026;-65
2022/04/26 07:26:40;;;;;;;5.20;1.08;;;;;;;24.59;28.28;96211.16;4996482;28;20026;-63
2022/04/26 07:29:06;;;;;;;1.52;0.90;;;;;;;24.04;29.18;96221.00;4996606;28;20489;-63
2022/04/26 07:31:31;;;;;;;1.88;1.05;;;;;;;23.81;31.58;96216.06;4996425;28;20054;-62
2022/04/26 07:36:41;;;;;;;2.28;0.75;;;;;;;24.06;30.47;96226.19;4996428;28;20405;-62
2022/04/26 07:39:07;;;;;;;1.45;0.70;;;;;;;23.76;29.09;96228.19;4996281;28;20027;-63
2022/04/26 07:41:33;;;;;;;2.03;0.75;;;;;;;23.79;29.50;96222.56;4996017;28;20419;-63
2022/04/26 07:43:58;;;;;;;3.13;0.68;;;;;;;24.21;31.12;96222.03;4996264;28;20088;-64
2022/04/26 07:46:24;;;;;;;3.22;0.80;;;;;;;24.40;30.08;96228.22;4996056;28;20027;-62
2022/04/26 07:48:51;;;;;;;2.17;0.82;;;;;;;24.41;29.79;96223.72;4996174;28;20037;-63
2022/04/26 07:51:18;;;;;;;4.82;0.90;;;;;;;24.31;31.06;96223.78;4996161;28;20496;-65
2022/04/26 07:53:44;;;;;;;2.88;1.08;;;;;;;24.19;30.01;96223.16;4996096;28;20373;-64
2022/04/26 07:56:10;;;;;;;3.28;0.70;;;;;;;24.05;29.41;96233.34;4995946;28;20425;-64
2022/04/26 07:58:35;;;;;;;2.97;1.00;;;;;;;23.63;29.69;96231.22;4995932;28;20080;-64
2022/04/26 08:01:03;;;;;;;3.20;0.63;;;;;;;23.37;30.68;96234.56;4995900;28;20033;-63
2022/04/26 08:03:32;;;;;;;3.53;0.75;;;;;;;23.03;30.01;96233.22;4995897;28;20023;-63
2022/04/26 08:06:21;;;;;;;3.60;1.05;;;;;;;22.71;31.67;96236.09;4995886;28;20038;-65
2022/04/26 08:08:47;;;;;;;2.10;1.00;;;;;;;22.68;30.36;96235.53;4995803;28;20030;-64
2022/04/26 08:11:13;;;;;;;3.30;1.00;;;;;;;22.96;30.83;96230.28;4995773;28;20393;-63
2022/04/26 08:13:43;;;;;;;3.13;0.93;;;;;;;23.06;29.02;96231.09;4995609;28;20381;-62
2022/04/26 08:16:10;;;;;;;;;;;;;;;23.00;29.96;96234.38;4996172;28;20031;-63
2022/04/26 08:18:37;;;;;;;3.17;1.20;;;;;;;23.09;30.61;96233.47;4995660;28;20396;-63
2022/04/26 08:21:06;;;;;;;3.80;1.30;;;;;;;23.48;28.65;96231.72;4995592;28;20038;-62
2022/04/26 08:23:33;;;;;;;5.55;1.00;;;;;;;24.17;28.88;96231.34;4978093;28;20385;-63
2022/04/26 08:28:45;;;;;;;4.47;1.10;;;;;;;24.00;28.35;96237.47;4995786;28;20096;-63
2022/04/26 08:31:11;;;;;;;5.05;1.58;;;;;;;24.02;29.27;96239.00;4977927;28;20408;-64
2022/04/26 08:33:38;;;;;;;3.17;1.17;;;;;;;24.46;31.60;96235.63;4995377;28;20022;-62
2022/04/26 08:36:04;;;;;;;6.63;1.75;;;;;;;24.64;29.92;96241.94;4995099;28;20040;-63
2022/04/26 08:38:31;;;;;;;2.75;1.25;;;;;;;25.02;28.80;96237.25;4995225;28;20023;-63
2022/04/26 08:40:57;;;;;;;4.35;1.00;;;;;;;25.17;28.35;96240.19;4994974;28;20146;-64
2022/04/26 08:43:23;;;;;;;5.13;1.10;;;;;;;25.06;29.06;96240.44;4995019;28;20042;-63
2022/04/26 08:45:49;;;;;;;3.55;1.30;;;;;;;24.83;26.85;96238.28;4995208;28;20038;-64
2022/04/26 08:51:05;;;;;;;3.92;1.00;;;;;;;24.87;28.59;96234.31;4995072;28;20132;-61
2022/04/26 08:53:34;;;;;;;8.30;1.20;;;;;;;25.17;29.47;96239.34;4994982;28;20033;-63
2022/04/26 08:56:06;;;;;;;4.32;1.02;;;;;;;25.25;28.34;96239.38;4994762;28;20050;-64
2022/04/26 08:58:33;;;;;;;4.25;0.90;;;;;;;25.29;28.82;96238.09;4994805;28;20033;-65
2022/04/26 09:01:09;;;;;;;3.58;1.13;;;;;;;25.20;27.41;96239.03;4994675;28;20388;-63
2022/04/26 09:03:38;;;;;;;2.63;0.88;;;;;;;24.67;28.06;96238.94;4994835;28;20030;-65
2022/04/26 09:06:13;;;;;;;3.17;1.00;;;;;;;24.44;28.37;96234.94;4994679;28;20026;-65
2022/04/26 09:08:47;;;;;;;4.68;1.00;;;;;;;24.43;29.19;96230.59;4994677;28;20030;-66
2022/04/26 09:11:20;;;;;;;8.00;1.30;;;;;;;24.03;29.05;96243.38;4994554;28;20448;-65
2022/04/26 09:13:46;;;;;;;8.73;1.20;;;;;;;24.00;29.97;96230.31;4994506;28;20496;-64
2022/04/26 09:16:17;;;;;;;9.15;0.90;;;;;;;24.14;31.97;96242.31;4994440;28;20417;-62
2022/04/26 09:18:50;;;;;;;;;;;;;;;24.13;29.75;96237.09;4994814;28;20022;-64
2022/04/26 09:21:15;;;;;;;11.52;2.13;;;;;;;24.38;31.63;96234.72;4994363;28;20416;-64
2022/04/26 09:23:42;;;;;;;2.80;1.20;;;;;;;24.82;29.45;96231.22;4994366;28;20040;-64
2022/04/26 09:26:15;;;;;;;2.10;0.95;;;;;;;24.99;27.29;96233.03;4994331;28;20026;-65
2022/04/26 09:28:47;;;;;;;8.32;1.38;;;;;;;25.16;29.96;96227.78;4994440;28;20031;-63
2022/04/26 09:31:30;;;;;;;1.73;0.95;;;;;;;25.25;28.93;96223.31;4994293;28;20054;-64
2022/04/26 09:34:03;;;;;;;2.15;1.00;;;;;;;25.22;29.56;96226.31;4994208;28;20033;-63
2022/04/26 09:36:31;;;;;;;5.53;1.10;;;;;;;24.80;28.33;96223.34;4976714;28;20580;-64
2022/04/26 09:38:59;;;;;;;4.13;1.15;;;;;;;24.84;30.42;96214.00;4993895;28;20074;-63
2022/04/26 09:41:26;;;;;;;8.23;1.20;;;;;;;24.60;29.77;96214.69;4993749;28;20046;-63
2022/04/26 09:44:07;;;;;;;6.22;1.00;;;;;;;24.38;30.41;96221.34;4994227;28;20118;-61
2022/04/26 09:46:49;;;;;;;11.23;1.60;;;;;;;24.46;30.23;96206.22;4994067;28;20061;-65
2022/04/26 09:49:21;;;;;;;8.57;1.30;;;;;;;24.48;31.87;96208.75;4994071;28;20034;-65
2022/04/26 09:51:51;;;;;;;3.80;1.45;;;;;;;24.50;31.28;96213.94;4989699;28;20093;-64
2022/04/26 09:54:18;;;;;;;6.03;1.27;;;;;;;24.48;32.39;96214.09;4993892;28;20031;-62
2022/04/26 09:56:45;;;;;;;7.22;1.42;;;;;;;24.26;32.00;96215.41;4993944;28;20037;-63
2022/04/26 09:59:25;;;;;;;8.05;1.55;;;;;;;24.15;31.60;96217.31;4993898;28;20034;-62
2022/04/26 10:01:55;;;;;;;8.98;1.52;;;;;;;24.30;37.67;96211.41;4993777;28;20077;-61
2022/04/26 10:04:23;;;;;;;8.73;1.45;;;;;;;24.70;34.08;96210.09;4993698;28;20018;-65
2022/04/26 10:06:52;;;;;;;5.97;1.50;;;;;;;25.23;32.86;96204.75;4993717;28;20022;-62
2022/04/26 10:09:19;;;;;;;5.80;1.65;;;;;;;25.76;32.13;96203.03;4993854;28;20477;-62
2022/04/26 10:11:44;;;;;;;6.40;1.27;;;;;;;25.57;28.48;96211.13;4993800;28;20034;-64
2022/04/26 10:14:12;;;;;;;10.95;1.67;;;;;;;25.30;29.98;96204.97;4993641;28;20511;-65
2022/04/26 10:16:39;;;;;;;4.70;1.05;;;;;;;25.27;29.95;96209.78;4993679;28;20156;-63
2022/04/26 10:19:08;;;;;;;9.43;1.80;;;;;;;25.27;29.48;96197.25;4993800;28;20023;-64
2022/04/26 10:21:39;;;;;;;4.72;1.25;;;;;;;25.39;30.78;96205.84;4993551;28;20619;-63
2022/04/26 10:24:05;;;;;;;3.00;1.23;;;;;;;25.53;32.06;96209.78;4993527;28;20508;-62
2022/04/26 10:26:33;;;;;;;6.65;1.52;;;;;;;25.28;31.24;96206.13;4993604;28;20031;-62
2022/04/26 10:29:08;;;;;;;6.45;1.25;;;;;;;25.40;31.10;96196.81;4993588;28;20500;-63
2022/04/26 10:31:36;;;;;;;6.60;1.70;;;;;;;25.47;32.70;96195.16;4993634;28;20109;-64
2022/04/26 10:34:27;;;;;;;6.90;1.70;;;;;;;25.48;30.69;96193.34;4993489;28;20389;-64
2022/04/26 10:37:08;;;;;;;6.40;1.48;;;;;;;25.47;30.51;96202.38;4993558;28;20366;-63
2022/04/26 10:39:36;;;;;;;3.55;1.38;;;;;;;25.46;28.80;96211.38;4993416;28;20026;-65
2022/04/26 10:42:07;;;;;;;5.15;1.65;;;;;;;25.38;27.97;96212.22;4993168;28;20050;-65
2022/04/26 10:44:39;;;;;;;6.95;1.50;;;;;;;25.55;28.49;96201.59;4993486;28;20034;-63
2022/04/26 10:47:04;;;;;;;4.55;1.35;;;;;;;25.89;28.77;96200.72;4993487;28;20030;-64
2022/04/26 10:49:33;;;;;;;7.90;1.42;;;;;;;25.61;25.64;96206.28;4994683;28;20025;-62
2022/04/26 10:52:23;;;;;;;7.57;1.40;;;;;;;25.28;28.43;96204.28;4997134;28;20025;-64
2022/04/26 10:54:56;;;;;;;3.55;1.10;;;;;;;25.38;25.25;96212.22;4997176;28;20046;-66
2022/04/26 10:57:27;;;;;;;12.43;1.50;;;;;;;25.24;27.56;96203.78;4997289;28;20042;-65
2022/04/26 10:59:54;;;;;;;6.10;1.15;;;;;;;25.03;24.64;96208.66;4997088;28;20034;-63
2022/04/26 11:02:21;;;;;;;7.25;1.00;;;;;;;24.76;25.69;96210.44;4997144;28;20030;-64
2022/04/26 11:04:59;;;;;;;8.70;2.08;;;;;;;24.68;27.16;96190.69;4997018;28;20033;-63
2022/04/26 11:07:26;;;;;;;7.30;1.27;;;;;;;24.43;27.70;96192.31;4996875;28;20033;-62
2022/04/26 11:09:54;;;;;;;10.23;1.50;;;;;;;24.61;26.96;96193.16;4996877;28;20040;-64
2022/04/26 11:12:25;;;;;;;8.65;1.75;;;;;;;24.71;29.15;96192.22;4996822;28;20492;-64
2022/04/26 11:14:54;;;;;;;7.45;1.83;;;;;;;24.40;28.02;96193.47;4996897;28;20101;-64
2022/04/26 11:17:22;;;;;;;5.85;1.58;;;;;;;24.20;28.73;96198.16;4997046;28;20026;-63
2022/04/26 11:19:53;;;;;;;6.75;2.00;;;;;;;23.95;29.76;96192.53;4996618;28;20034;-62
2022/04/26 11:22:21;;;;;;;3.65;1.70;;;;;;;24.16;31.18;96194.09;4996908;28;20053;-63
2022/04/26 11:30:24;;;;;;;5.97;1.60;;;;;;;24.15;29.29;96197.75;4996865;28;20157;-63
2022/04/26 11:32:50;;;;;;;7.55;1.08;;;;;;;24.03;29.00;96192.63;4996514;28;20035;-64
2022/04/26 11:35:22;;;;;;;8.13;1.73;;;;;;;24.01;29.97;96189.25;4996471;28;20034;-63
2022/04/26 11:37:54;;;;;;;4.50;1.15;;;;;;;23.98;30.10;96185.06;4996245;28;20034;-66
2022/04/26 11:40:40;;;;;;;5.90;1.05;;;;;;;23.74;32.13;96177.63;4978590;28;20120;-63
2022/04/26 11:43:15;;;;;;;7.18;1.60;;;;;;;23.70;31.00;96186.91;4996271;28;20042;-65
2022/04/26 11:45:44;;;;;;;7.03;1.08;;;;;;;23.54;30.59;96191.06;4996389;28;20376;-65
2022/04/26 11:48:15;;;;;;;6.70;1.60;;;;;;;23.76;30.64;96191.66;4996293;28;20022;-63
2022/04/26 11:50:45;;;;;;;8.98;1.20;;;;;;;23.86;29.35;96183.59;4996202;28;20516;-62
2022/04/26 11:53:15;;;;;;;3.38;1.08;;;;;;;23.89;29.01;96171.75;4996172;28;20061;-62
2022/04/26 11:55:43;;;;;;;6.50;1.15;;;;;;;23.85;29.95;96173.91;4996136;28;20026;-62
2022/04/26 11:58:13;;;;;;;5.10;1.20;;;;;;;23.99;30.76;96161.88;4996183;28;20038;-64
2022/04/26 12:01:00;;;;;;;6.30;1.30;;;;;;;24.12;30.88;96164.16;4995700;28;20469;-63
2022/04/26 12:03:44;;;;;;;5.72;1.40;;;;;;;23.97;28.81;96182.53;4995986;28;20496;-63
2022/04/26 12:06:12;;;;;;;11.00;1.10;;;;;;;23.87;31.43;96171.91;4995893;28;20362;-65
2022/04/26 12:08:56;;;;;;;10.45;1.38;;;;;;;24.12;31.20;96158.81;4995781;28;20469;-62
2022/04/26 12:11:35;;;;;;;4.78;1.60;;;;;;;24.43;30.13;96155.75;4995861;28;20036;-65
2022/04/26 12:14:21;;;;;;;6.65;1.67;;;;;;;24.30;28.93;96157.97;4995884;28;20543;-63
2022/04/26 12:16:48;;;;;;;7.18;1.50;;;;;;;24.04;30.53;96161.38;4995672;28;20041;-62
2022/04/26 12:19:15;;;;;;;6.75;1.52;;;;;;;24.34;31.05;96165.53;4995673;28;20014;-61
2022/04/26 12:21:52;;;;;;;6.40;1.40;;;;;;;24.42;30.48;96163.94;4995540;28;20481;-62
2022/04/26 12:24:24;;;;;;;8.07;1.30;;;;;;;24.48;30.52;96166.81;4978114;28;20496;-62
2022/04/26 12:26:50;;;;;;;9.15;1.25;;;;;;;24.53;29.86;96166.34;4995459;28;20049;-64
2022/04/26 12:29:16;;;;;;;8.43;1.50;;;;;;;24.29;29.65;96159.00;4995531;28;20019;-63
2022/04/26 12:31:47;;;;;;;4.82;1.40;;;;;;;24.19;30.94;96161.72;4995415;28;20018;-63
2022/04/26 12:34:22;;;;;;;11.13;1.25;;;;;;;24.00;30.33;96162.69;4995201;28;20029;-65
2022/04/26 12:37:06;;;;;;;5.70;1.58;;;;;;;23.66;30.75;96167.69;4995247;28;20023;-62
2022/04/26 12:39:41;;;;;;;6.75;1.40;;;;;;;23.75;31.47;96160.59;4995213;28;20034;-63
2022/04/26 12:42:42;;;;;;;7.22;2.05;;;;;;;23.90;30.62;96160.91;4994877;28;20048;-64
2022/04/26 12:45:25;;;;;;;8.00;2.15;;;;;;;23.93;31.49;96155.28;4995094;28;20033;-61
2022/04/26 12:50:54;;;;;;;4.78;1.70;;;;;;;23.81;32.13;96170.69;4995309;28;20567;-64
2022/04/26 12:53:28;;;;;;;6.70;1.70;;;;;;;23.72;30.20;96167.09;4995103;28;20034;-62
2022/04/26 12:56:04;;;;;;;4.55;1.60;;;;;;;23.82;31.63;96174.19;4994990;28;20026;-64
2022/04/26 12:58:37;;;;;;;13.52;1.83;;;;;;;23.98;30.60;96182.38;4995010;28;20109;-61
2022/04/26 13:01:04;;;;;;;10.93;1.70;;;;;;;23.80;31.30;96186.84;4994790;28;20038;-64
2022/04/26 13:03:30;;;;;;;7.38;1.67;;;;;;;23.67;30.49;96190.75;4994909;28;20495;-63
2022/04/26 13:06:18;;;;;;;9.63;1.90;;;;;;;23.47;31.97;96220.19;4994772;28;20428;-65
2022/04/26 13:08:46;;;;;;;2.42;1.20;;;;;;;22.94;32.41;96218.94;4993989;28;20097;-63
2022/04/26 13:11:14;;;;;;;2.72;1.23;;;;;;;22.41;33.93;96221.06;4977139;28;20121;-64
2022/04/26 13:13:40;;;;;;;2.60;1.00;;;;;;;22.07;34.66;96215.16;4994231;28;20026;-64
2022/04/26 13:16:07;;;;;;;4.45;1.23;;;;;;;21.87;35.52;96211.63;4994489;28;20026;-63
2022/04/26 13:18:33;;;;;;;3.88;1.30;;;;;;;21.52;37.06;96213.75;4994497;28;20436;-63
2022/04/26 13:21:01;;;;;;;3.80;1.25;;;;;;;21.38;38.04;96216.78;4994398;28;20018;-63
2022/04/26 13:23:30;;;;;;;1.42;1.13;;;;;;;21.18;38.20;96216.69;4994436;28;20421;-65
2022/04/26 13:25:57;;;;;;;3.58;1.23;;;;;;;20.95;39.63;96211.56;4994547;28;20030;-63
2022/04/26 13:28:23;;;;;;;4.43;1.02;;;;;;;20.79;39.90;96219.97;4994272;28;20389;-63
2022/04/26 13:30:49;;;;;;;3.65;1.38;;;;;;;20.63;40.07;96209.78;4994338;28;20436;-63
2022/04/26 13:33:16;;;;;;;4.20;1.52;;;;;;;20.26;40.94;96209.22;4994522;28;20026;-62
2022/04/26 13:35:42;;;;;;;6.68;1.27;;;;;;;20.08;42.47;96204.47;4994502;28;20077;-65
2022/04/26 13:38:12;;;;;;;4.75;1.70;;;;;;;20.20;42.38;96204.47;4994243;28;20022;-63
2022/04/26 13:40:42;;;;;;;7.57;1.40;;;;;;;19.95;40.92;96207.28;4993867;28;20047;-63
2022/04/26 13:43:09;;;;;;;4.40;1.20;;;;;;;19.97;41.66;96195.69;4994084;28;20551;-62
2022/04/26 13:45:34;;;;;;;5.45;1.25;;;;;;;19.92;43.06;96215.47;4994022;28;20033;-65
2022/04/26 13:48:02;;;;;;;4.72;1.42;;;;;;;19.95;44.11;96206.41;4994080;28;20026;-64
2022/04/26 13:50:29;;;;;;;7.30;1.70;;;;;;;19.97;43.83;96195.69;4994023;28;20038;-62
2022/04/26 13:52:55;;;;;;;3.63;1.25;;;;;;;20.07;42.63;96180.72;4993923;28;20026;-64
2022/04/26 13:55:20;;;;;;;5.40;1.73;;;;;;;20.30;42.62;96176.16;4993905;28;20026;-64
2022/04/26 13:57:46;;;;;;;6.97;1.10;;;;;;;20.46;41.59;96166.91;4993830;28;20030;-65
2022/04/26 14:00:15;;;;;;;7.13;1.20;;;;;;;20.56;41.58;96167.78;4993865;28;20038;-64
2022/04/26 14:02:44;;;;;;;6.15;1.38;;;;;;;20.47;41.19;96173.06;4993918;28;20031;-64
2022/04/26 14:05:10;;;;;;;4.78;1.10;;;;;;;20.41;42.70;96169.94;4993782;28;20030;-63
2022/04/26 14:07:36;;;;;;;4.35;1.00;;;;;;;20.47;40.71;96176.56;4993859;28;20026;-61
2022/04/26 14:10:04;;;;;;;3.72;1.23;;;;;;;20.58;40.37;96173.84;4993724;28;20026;-62
2022/04/26 14:12:30;;;;;;;3.97;1.65;;;;;;;20.61;41.53;96172.72;4993701;28;20041;-62
2022/04/26 14:23:09;;;;;;;4.35;1.40;;;;;;;20.01;41.67;96189.19;4994077;28;20088;-62
2022/04/26 14:25:37;;;;;;;7.22;1.73;;;;;;;19.88;41.86;96174.25;4996800;28;20023;-62
2022/04/26 14:28:05;;;;;;;3.10;1.15;;;;;;;19.89;43.61;96178.56;4997632;28;20113;-64
2022/04/26 14:30:30;;;;;;;7.38;1.77;;;;;;;20.02;43.96;96172.31;4997527;28;20026;-61
2022/04/26 14:32:57;;;;;;;6.05;1.40;;;;;;;20.15;43.48;96162.34;4997545;28;20033;-63
2022/04/26 14:35:23;;;;;;;2.65;1.08;;;;;;;20.20;41.70;96160.13;4997669;28;20113;-63
2022/04/26 14:37:51;;;;;;;6.53;1.60;;;;;;;20.08;41.96;96150.56;4997527;28;20033;-62
2022/04/26 14:40:18;;;;;;;3.33;1.10;;;;;;;19.97;41.16;96148.75;4997103;28;20373;-62
2022/04/26 14:42:46;;;;;;;1.85;1.10;;;;;;;20.03;41.92;96150.94;4997380;28;20109;-63
2022/04/26 14:45:13;;;;;;;2.67;1.00;;;;;;;19.90;43.20;96158.19;4997504;28;20026;-64
2022/04/26 14:47:40;;;;;;;6.32;1.17;;;;;;;19.88;40.27;96147.72;4997321;28;20384;-62
2022/04/26 14:50:08;;;;;;;5.07;1.00;;;;;;;19.87;40.40;96147.84;4997113;28;20023;-61
2022/04/26 14:52:33;;;;;;;4.50;1.13;;;;;;;19.97;40.61;96137.28;4997201;28;20480;-62
2022/04/26 14:55:01;;;;;;;2.50;0.90;;;;;;;20.02;39.87;96129.84;4997181;28;20030;-62
2022/04/26 14:57:27;;;;;;;6.45;1.27;;;;;;;20.10;40.20;96119.41;4997011;28;20018;-63
2022/04/26 14:59:53;;;;;;;1.40;0.77;;;;;;;20.13;39.71;96118.31;4997096;28;20438;-63
2022/04/26 15:02:20;;;;;;;4.88;1.27;;;;;;;20.03;38.56;96118.25;4997114;28;20377;-65
2022/04/26 15:04:47;;;;;;;2.13;0.90;;;;;;;19.82;38.77;96114.56;4996968;28;20077;-61
2022/04/26 15:07:13;;;;;;;2.17;1.33;;;;;;;19.69;38.06;96106.75;4997028;28;20030;-63
2022/04/26 15:09:45;;;;;;;3.15;0.98;;;;;;;19.66;38.89;96106.19;4996852;28;20026;-61
2022/04/26 15:17:42;;;;;;;3.08;0.98;;;;;;;19.75;38.76;96115.19;4997312;28;20037;-60
2022/04/26 15:20:09;;;;;;;5.47;0.80;;;;;;;19.63;39.86;96109.91;4996550;28;20030;-63
2022/04/26 15:22:37;;;;;;;5.68;1.10;;;;;;;19.61;40.63;96118.97;4996624;28;20035;-62
2022/04/26 15:25:06;;;;;;;1.77;1.00;;;;;;;19.52;40.07;96128.50;4996642;28;20092;-62
2022/04/26 15:27:34;;;;;;;2.20;1.05;;;;;;;19.51;40.54;96142.75;4996759;28;20033;-61
2022/04/26 15:30:01;;;;;;;4.13;1.08;;;;;;;19.40;39.10;96139.16;4996707;28;20034;-65
2022/04/26 15:32:27;;;;;;;3.00;1.05;;;;;;;19.35;41.00;96141.31;4996403;28;20034;-63
2022/04/26 15:34:53;;;;;;;3.85;0.88;;;;;;;19.34;40.92;96146.75;4995954;28;20029;-62
2022/04/26 15:37:19;;;;;;;5.03;1.10;;;;;;;19.28;41.19;96154.25;4996425;28;20097;-65
2022/04/26 15:39:47;;;;;;;3.10;1.20;;;;;;;19.21;41.63;96149.53;4996344;28;20027;-64
2022/04/26 15:42:17;;;;;;;3.35;1.20;;;;;;;19.15;41.81;96143.75;4996463;28;20176;-64
2022/04/26 15:44:43;;;;;;;2.28;1.10;;;;;;;19.11;41.32;96136.19;4996329;28;20037;-62
2022/04/26 15:47:09;;;;;;;2.50;1.10;;;;;;;19.03;41.21;96152.66;4996325;28;20537;-65
2022/04/26 15:49:35;;;;;;;5.18;1.30;;;;;;;19.01;41.60;96146.63;4996205;28;20034;-62
2022/04/26 15:52:00;;;;;;;4.25;1.10;;;;;;;18.98;41.72;96154.81;4996139;28;20062;-64